createdAt,value
2023-04-27T00:01:58.164Z,98910.31
2023-04-27T00:04:28.786Z,98898.53
2023-04-27T00:06:55.892Z,98905.53
2023-04-27T00:09:22.916Z,98904.22
2023-04-27T00:11:49.978Z,98914.28
2023-04-27T00:14:16.827Z,98909.22
2023-04-27T00:16:43.978Z,98915.94
2023-04-27T00:19:11.122Z,98922.91
2023-04-27T00:21:38.003Z,98912.38
2023-04-27T00:24:05.257Z,98912.38
2023-04-27T00:26:31.998Z,98924.53
2023-04-27T00:28:59.905Z,98933.69
2023-04-27T00:31:26.878Z,98928.22
2023-04-27T00:33:53.801Z,98928.22
2023-04-27T00:36:20.585Z,98935.50
2023-04-27T00:38:48.424Z,98937.13
2023-04-27T00:41:15.582Z,98941.19
2023-04-27T00:43:44.197Z,98942.59
2023-04-27T00:46:13.335Z,98938.97
2023-04-27T00:48:41.829Z,98949.81
2023-04-27T00:51:08.794Z,98950.31
2023-04-27T00:53:36.963Z,98944.03
2023-04-27T00:56:05.647Z,98950.75
2023-04-27T00:58:33.007Z,98955.25
2023-04-27T01:01:00.904Z,98949.16
2023-04-27T01:03:28.103Z,98955.56
2023-04-27T01:05:56.904Z,98950.38
2023-04-27T01:08:24.667Z,98956.97
2023-04-27T01:10:51.988Z,98963.16
2023-04-27T01:13:19.026Z,98942.88
2023-04-27T01:15:46.199Z,98954.34
2023-04-27T01:18:12.981Z,98959.09
2023-04-27T01:20:40.261Z,98958.50
2023-04-27T01:23:15.400Z,98972.25
2023-04-27T01:25:43.902Z,98959.09
2023-04-27T01:28:10.835Z,98960.59
2023-04-27T01:30:37.751Z,98978.03
2023-04-27T01:33:04.726Z,98983.91
2023-04-27T01:35:31.849Z,98981.16
2023-04-27T01:38:00.535Z,98968.81
2023-04-27T01:40:27.769Z,98978.97
2023-04-27T01:42:54.572Z,98982.91
2023-04-27T01:45:21.550Z,98982.72
2023-04-27T01:47:51.690Z,98992.84
2023-04-27T01:50:20.428Z,98988.50
2023-04-27T01:52:47.586Z,98980.88
2023-04-27T01:55:14.979Z,98987.28
2023-04-27T01:57:42.541Z,98981.41
2023-04-27T02:00:09.912Z,98995.00
2023-04-27T02:02:51.188Z,98988.59
2023-04-27T02:05:18.520Z,98992.94
2023-04-27T02:07:46.365Z,99001.09
2023-04-27T02:10:13.285Z,98988.50
2023-04-27T02:12:40.127Z,98990.44
2023-04-27T02:15:08.730Z,98987.69
2023-04-27T02:17:36.254Z,98997.84
2023-04-27T02:20:03.170Z,98986.56
2023-04-27T02:22:30.083Z,98991.44
2023-04-27T02:24:57.006Z,99000.97
2023-04-27T02:27:23.986Z,99002.91
2023-04-27T02:29:51.300Z,99002.59
2023-04-27T02:32:18.764Z,99013.38
2023-04-27T02:34:45.607Z,99010.81
2023-04-27T02:37:12.592Z,99017.63
2023-04-27T02:39:39.344Z,99026.06
2023-04-27T02:42:06.742Z,99025.13
2023-04-27T02:44:33.625Z,99024.63
2023-04-27T02:47:00.608Z,99027.47
2023-04-27T02:49:27.777Z,99025.13
2023-04-27T02:51:54.675Z,99034.59
2023-04-27T02:54:21.622Z,99030.94
2023-04-27T02:56:48.679Z,99033.97
2023-04-27T02:59:15.839Z,99026.25
2023-04-27T03:01:43.026Z,99034.47
2023-04-27T03:04:10.783Z,99040.78
2023-04-27T03:06:37.986Z,99042.22
2023-04-27T03:09:05.488Z,99051.63
2023-04-27T03:11:32.471Z,99050.81
2023-04-27T03:13:59.386Z,99067.25
2023-04-27T03:16:26.285Z,99070.31
2023-04-27T03:18:53.117Z,99067.66
2023-04-27T03:21:20.017Z,99059.75
2023-04-27T03:23:49.310Z,99072.13
2023-04-27T03:26:16.672Z,99069.00
2023-04-27T03:28:43.685Z,99077.22
2023-04-27T03:31:12.641Z,99083.09
2023-04-27T03:33:40.401Z,99083.63
2023-04-27T03:36:08.676Z,99085.94
2023-04-27T03:38:35.997Z,99087.75
2023-04-27T03:41:03.438Z,99091.31
2023-04-27T03:43:30.792Z,99094.00
2023-04-27T03:45:57.795Z,99092.66
2023-04-27T03:48:25.196Z,99099.16
2023-04-27T03:50:54.649Z,99104.03
2023-04-27T03:53:21.681Z,99100.78
2023-04-27T03:55:49.511Z,99096.94
2023-04-27T03:58:17.929Z,99110.34
2023-04-27T04:01:05.206Z,99096.44
2023-04-27T04:03:32.388Z,99122.31
2023-04-27T04:05:59.444Z,99102.00
2023-04-27T04:08:26.502Z,99108.59
2023-04-27T04:10:54.032Z,99110.72
2023-04-27T04:13:21.010Z,99129.72
2023-04-27T04:15:47.942Z,99119.25
2023-04-27T04:18:15.005Z,99122.78
2023-04-27T04:20:42.462Z,99120.16
2023-04-27T04:23:09.410Z,99107.88
2023-04-27T04:25:36.546Z,99118.19
2023-04-27T04:28:03.749Z,99131.94
2023-04-27T04:30:30.878Z,99116.59
2023-04-27T04:35:42.543Z,99126.72
2023-04-27T04:38:10.862Z,99129.84
2023-04-27T04:40:39.713Z,99132.59
2023-04-27T04:43:06.879Z,99141.81
2023-04-27T04:45:33.790Z,99136.34
2023-04-27T04:48:01.593Z,99141.28
2023-04-27T04:50:29.282Z,99142.59
2023-04-27T04:52:59.669Z,99139.34
2023-04-27T04:55:28.702Z,99134.47
2023-04-27T04:57:55.905Z,99148.69
2023-04-27T05:00:22.993Z,99145.47
2023-04-27T05:02:50.572Z,99150.31
2023-04-27T05:05:17.640Z,99153.19
2023-04-27T05:07:44.981Z,99152.25
2023-04-27T05:10:12.456Z,99164.56
2023-04-27T05:12:39.642Z,99170.03
2023-04-27T05:15:07.550Z,99159.69
2023-04-27T05:17:34.384Z,99161.75
2023-04-27T05:20:01.363Z,99167.41
2023-04-27T05:22:28.518Z,99157.44
2023-04-27T05:24:55.975Z,99162.63
2023-04-27T05:27:23.136Z,99167.69
2023-04-27T05:29:50.683Z,99164.19
2023-04-27T05:32:17.452Z,99163.25
2023-04-27T05:34:46.654Z,99170.84
2023-04-27T05:37:15.538Z,99158.28
2023-04-27T05:39:42.482Z,99165.09
2023-04-27T05:42:09.476Z,99151.03
2023-04-27T05:44:36.645Z,99163.44
2023-04-27T05:47:03.735Z,99154.88
2023-04-27T05:49:30.999Z,99166.69
2023-04-27T05:51:59.147Z,99176.44
2023-04-27T05:54:27.658Z,99171.25
2023-04-27T05:56:54.958Z,99172.56
2023-04-27T05:59:22.340Z,99191.84
2023-04-27T06:01:49.545Z,99187.97
2023-04-27T06:04:16.727Z,99178.38
2023-04-27T06:06:44.907Z,99181.13
2023-04-27T06:09:12.387Z,99179.50
2023-04-27T06:11:39.635Z,99179.34
2023-04-27T06:14:06.667Z,99168.88
2023-04-27T06:16:33.665Z,99177.78
2023-04-27T06:19:00.727Z,99173.00
2023-04-27T06:21:28.458Z,99172.38
2023-04-27T06:23:55.654Z,99180.84
2023-04-27T06:26:22.677Z,99178.25
2023-04-27T06:28:49.546Z,99177.00
2023-04-27T06:31:17.182Z,99184.50
2023-04-27T06:33:44.265Z,99183.88
2023-04-27T06:36:11.974Z,99185.50
2023-04-27T06:38:38.971Z,99199.94
2023-04-27T06:41:06.138Z,99188.28
2023-04-27T06:43:33.201Z,99187.00
2023-04-27T06:46:00.251Z,99196.88
2023-04-27T06:48:27.370Z,99195.56
2023-04-27T06:50:54.252Z,99191.88
2023-04-27T06:53:21.286Z,99201.91
2023-04-27T06:55:48.823Z,99197.03
2023-04-27T06:58:15.959Z,99195.25
2023-04-27T07:00:43.027Z,99201.09
2023-04-27T07:03:10.056Z,99191.53
2023-04-27T07:05:37.510Z,99210.19
2023-04-27T07:08:07.942Z,99204.69
2023-04-27T07:10:36.140Z,99212.31
2023-04-27T07:13:03.233Z,99206.78
2023-04-27T07:15:31.857Z,99211.81
2023-04-27T07:17:58.919Z,99209.06
2023-04-27T07:20:26.962Z,99204.84
2023-04-27T07:22:53.835Z,99206.59
2023-04-27T07:25:21.793Z,99218.09
2023-04-27T07:27:48.783Z,99214.91
2023-04-27T07:30:17.332Z,99214.91
2023-04-27T07:32:44.488Z,99218.50
2023-04-27T07:35:13.603Z,99221.09
2023-04-27T07:37:40.543Z,99213.44
2023-04-27T07:40:17.457Z,99221.88
2023-04-27T07:42:46.368Z,99222.34
2023-04-27T07:45:14.190Z,99214.06
2023-04-27T07:47:41.227Z,99224.59
2023-04-27T07:50:08.699Z,99216.66
2023-04-27T07:52:36.082Z,99213.25
2023-04-27T07:55:03.997Z,99220.72
2023-04-27T07:57:31.033Z,99214.53
2023-04-27T07:59:58.305Z,99225.88
2023-04-27T08:02:30.729Z,99234.63
2023-04-27T08:04:58.194Z,99243.72
2023-04-27T08:07:26.042Z,99234.31
2023-04-27T08:09:53.294Z,99238.38
2023-04-27T08:12:20.232Z,99234.97
2023-04-27T08:14:47.644Z,99234.84
2023-04-27T08:17:14.890Z,99239.34
2023-04-27T08:19:41.652Z,99241.94
2023-04-27T08:22:08.626Z,99238.19
2023-04-27T08:24:36.268Z,99211.28
2023-04-27T08:27:05.825Z,99242.25
2023-04-27T08:29:33.047Z,99229.59
2023-04-27T08:32:02.103Z,99236.91
2023-04-27T08:34:29.716Z,99231.69
2023-04-27T08:36:57.251Z,99247.34
2023-04-27T08:39:25.095Z,99233.03
2023-04-27T08:41:52.116Z,99216.66
2023-04-27T08:44:19.093Z,99230.34
2023-04-27T08:46:46.773Z,99238.56
2023-04-27T08:49:16.549Z,99240.03
2023-04-27T08:51:44.734Z,99229.75
2023-04-27T08:54:11.768Z,99238.16
2023-04-27T08:56:39.437Z,99234.88
2023-04-27T08:59:17.794Z,99241.78
2023-04-27T09:01:49.325Z,99241.34
2023-04-27T09:04:18.284Z,99241.44
2023-04-27T09:06:46.016Z,99233.19
2023-04-27T09:09:23.525Z,99229.19
2023-04-27T09:11:51.517Z,99241.44
2023-04-27T09:14:25.020Z,99227.13
2023-04-27T09:16:59.738Z,99242.69
2023-04-27T09:19:28.846Z,99242.31
2023-04-27T09:22:09.860Z,99238.94
2023-04-27T09:24:37.903Z,99230.19
2023-04-27T09:27:05.374Z,99229.13
2023-04-27T09:29:33.909Z,99228.63
2023-04-27T09:32:01.047Z,99226.38
2023-04-27T09:34:38.417Z,99225.63
2023-04-27T09:37:05.936Z,99224.22
2023-04-27T09:39:33.598Z,99227.59
2023-04-27T09:42:01.215Z,99223.88
2023-04-27T09:44:29.807Z,99236.75
2023-04-27T09:46:59.939Z,99220.75
2023-04-27T09:49:31.437Z,99222.22
2023-04-27T09:51:59.001Z,99221.94
2023-04-27T09:54:33.788Z,99218.34
2023-04-27T09:57:28.859Z,99222.75
2023-04-27T10:00:36.039Z,99217.44
2023-04-27T10:03:24.272Z,99226.50
2023-04-27T10:06:09.062Z,99220.00
2023-04-27T10:08:36.440Z,99221.78
2023-04-27T10:11:15.375Z,99218.88
2023-04-27T10:13:54.448Z,99230.66
2023-04-27T10:16:22.291Z,99224.84
2023-04-27T10:18:55.585Z,99233.56
2023-04-27T10:21:23.870Z,99229.91
2023-04-27T10:23:52.698Z,99239.47
2023-04-27T10:26:24.123Z,99231.41
2023-04-27T10:29:09.212Z,99227.34
2023-04-27T10:31:36.361Z,99227.47
2023-04-27T10:34:10.844Z,99235.97
2023-04-27T10:36:39.398Z,99237.72
2023-04-27T10:39:27.601Z,99236.03
2023-04-27T10:41:59.951Z,99233.28
2023-04-27T10:44:32.069Z,99239.16
2023-04-27T10:47:01.617Z,99247.75
2023-04-27T10:49:30.854Z,99250.31
2023-04-27T10:51:59.984Z,99249.34
2023-04-27T10:54:28.657Z,99248.53
2023-04-27T10:57:04.129Z,99234.09
2023-04-27T10:59:31.307Z,99230.63
2023-04-27T11:01:58.527Z,99237.13
2023-04-27T11:04:44.290Z,99236.41
2023-04-27T11:07:11.495Z,99234.09
2023-04-27T11:09:39.692Z,99242.06
2023-04-27T11:12:08.571Z,99234.44
2023-04-27T11:14:37.004Z,99241.03
2023-04-27T11:17:04.839Z,99247.50
2023-04-27T11:19:32.304Z,99235.00
2023-04-27T11:22:06.793Z,99239.28
2023-04-27T11:24:34.153Z,99229.66
2023-04-27T11:27:01.160Z,99222.22
2023-04-27T11:29:38.380Z,99196.16
2023-04-27T11:32:06.128Z,99222.00
2023-04-27T11:34:37.106Z,99221.41
2023-04-27T11:37:17.977Z,99221.50
2023-04-27T11:39:46.143Z,99220.72
2023-04-27T11:42:19.749Z,99226.81
2023-04-27T11:44:56.190Z,99228.38
2023-04-27T11:47:25.264Z,99224.25
2023-04-27T11:49:54.710Z,99223.09
2023-04-27T11:52:22.774Z,99228.94
2023-04-27T11:54:58.660Z,99229.84
2023-04-27T11:57:29.543Z,99228.16
2023-04-27T11:59:58.837Z,99226.81
2023-04-27T12:02:27.410Z,99221.84
2023-04-27T12:04:54.767Z,99222.31
2023-04-27T12:07:21.944Z,99223.25
2023-04-27T12:09:50.059Z,99219.69
2023-04-27T12:12:18.634Z,99207.22
2023-04-27T12:14:46.043Z,99204.44
2023-04-27T12:17:13.326Z,99214.72
2023-04-27T12:19:40.353Z,99224.53
2023-04-27T12:22:08.600Z,99214.47
2023-04-27T12:24:36.432Z,99218.41
2023-04-27T12:27:04.472Z,99210.59
2023-04-27T12:29:34.418Z,99226.03
2023-04-27T12:32:01.536Z,99218.97
2023-04-27T12:34:28.686Z,99198.09
2023-04-27T12:36:56.320Z,99205.13
2023-04-27T12:39:26.999Z,99205.00
2023-04-27T12:41:54.365Z,99203.97
2023-04-27T12:44:22.117Z,99202.34
2023-04-27T12:46:49.564Z,99208.38
2023-04-27T12:49:17.702Z,99207.56
2023-04-27T12:51:47.130Z,99211.16
2023-04-27T12:54:14.432Z,99201.22
2023-04-27T12:56:42.092Z,99193.59
2023-04-27T12:59:09.381Z,99184.59
2023-04-27T13:01:36.696Z,99181.47
2023-04-27T13:04:06.238Z,99188.38
2023-04-27T13:06:33.250Z,99183.44
2023-04-27T13:09:00.415Z,99192.31
2023-04-27T13:11:27.557Z,99189.34
2023-04-27T13:13:55.324Z,99175.47
2023-04-27T13:16:25.380Z,99189.94
2023-04-27T13:18:53.607Z,99183.38
2023-04-27T13:21:21.306Z,99179.69
2023-04-27T13:23:51.460Z,99182.81
2023-04-27T13:26:19.022Z,99154.16
2023-04-27T13:28:46.357Z,99178.50
2023-04-27T13:31:16.256Z,99180.00
2023-04-27T13:33:44.385Z,99173.50
2023-04-27T13:36:12.770Z,99162.09
2023-04-27T13:38:39.968Z,99164.03
2023-04-27T13:41:08.118Z,99148.91
2023-04-27T13:43:35.836Z,99158.38
2023-04-27T13:46:03.211Z,99155.09
2023-04-27T13:48:30.904Z,99147.84
2023-04-27T13:50:58.596Z,99157.94
2023-04-27T13:53:25.977Z,99154.25
2023-04-27T13:55:59.330Z,99157.84
2023-04-27T13:58:30.178Z,99160.47
2023-04-27T14:00:58.136Z,99151.72
2023-04-27T14:03:25.874Z,99163.72
2023-04-27T14:05:52.852Z,99155.44
2023-04-27T14:08:19.970Z,99154.75
2023-04-27T14:10:46.942Z,99160.53
2023-04-27T14:13:14.395Z,99163.44
2023-04-27T14:15:42.049Z,99166.72
2023-04-27T14:18:10.091Z,99159.81
2023-04-27T14:20:38.311Z,99164.13
2023-04-27T14:23:06.348Z,99155.94
2023-04-27T14:25:34.935Z,99157.31
2023-04-27T14:28:04.714Z,99160.41
2023-04-27T14:30:32.357Z,99157.59
2023-04-27T14:32:59.574Z,99156.03
2023-04-27T14:35:27.808Z,99156.00
2023-04-27T14:37:56.930Z,99152.38
2023-04-27T14:40:24.398Z,99167.84
2023-04-27T14:42:51.167Z,99156.59
2023-04-27T14:45:18.999Z,99154.06
2023-04-27T14:47:46.180Z,99165.00
2023-04-27T14:50:13.487Z,99170.88
2023-04-27T14:52:41.087Z,99162.38
2023-04-27T14:55:08.477Z,99151.25
2023-04-27T14:57:36.847Z,99156.66
2023-04-27T15:00:10.102Z,99159.25
2023-04-27T15:02:38.025Z,99163.09
2023-04-27T15:05:06.205Z,99165.53
2023-04-27T15:07:33.216Z,99168.31
2023-04-27T15:10:00.298Z,99167.66
2023-04-27T15:12:27.357Z,99161.91
2023-04-27T15:14:54.405Z,99164.56
2023-04-27T15:17:21.579Z,99167.84
2023-04-27T15:19:48.650Z,99169.50
2023-04-27T15:22:15.425Z,99167.44
2023-04-27T15:24:42.613Z,99176.56
2023-04-27T15:27:09.966Z,99170.38
2023-04-27T15:29:42.371Z,99177.78
2023-04-27T15:32:09.351Z,99161.75
2023-04-27T15:34:37.054Z,99179.59
2023-04-27T15:37:04.054Z,99175.56
2023-04-27T15:39:31.121Z,99186.00
2023-04-27T15:42:00.267Z,99174.56
2023-04-27T15:44:29.472Z,99181.44
2023-04-27T15:46:59.864Z,99180.72
2023-04-27T15:49:27.284Z,99178.50
2023-04-27T15:51:55.364Z,99182.22
2023-04-27T15:54:22.347Z,99180.25
2023-04-27T15:56:49.354Z,99188.78
2023-04-27T15:59:16.754Z,99188.31
2023-04-27T16:01:44.265Z,99193.66
2023-04-27T16:04:11.192Z,99193.63
2023-04-27T16:06:38.894Z,99193.16
2023-04-27T16:09:09.807Z,99193.22
2023-04-27T16:11:37.648Z,99202.66
2023-04-27T16:14:04.731Z,99203.06
2023-04-27T16:16:32.351Z,99201.44
2023-04-27T16:18:59.527Z,99208.59
2023-04-27T16:21:28.184Z,99210.09
2023-04-27T16:23:54.969Z,99211.28
2023-04-27T16:26:22.232Z,99211.81
2023-04-27T16:28:49.214Z,99206.97
2023-04-27T16:31:16.355Z,99213.88
2023-04-27T16:33:43.193Z,99216.50
2023-04-27T16:36:11.290Z,99224.94
2023-04-27T16:38:39.353Z,99225.44
2023-04-27T16:41:06.553Z,99226.31
2023-04-27T16:43:33.995Z,99218.38
2023-04-27T16:46:01.337Z,99222.13
2023-04-27T16:48:28.653Z,99222.19
2023-04-27T16:50:56.367Z,99224.00
2023-04-27T16:53:23.891Z,99239.28
2023-04-27T16:55:50.842Z,99225.22
2023-04-27T16:58:17.757Z,99233.75
2023-04-27T17:00:44.745Z,99232.47
2023-04-27T17:03:12.307Z,99252.59
2023-04-27T17:05:39.434Z,99244.19
2023-04-27T17:08:06.621Z,99241.78
2023-04-27T17:10:33.470Z,99245.69
2023-04-27T17:13:00.502Z,99245.03
2023-04-27T17:15:28.925Z,99258.19
2023-04-27T17:17:56.385Z,99261.28
2023-04-27T17:20:23.583Z,99253.03
2023-04-27T17:22:50.620Z,99249.59
2023-04-27T17:25:18.005Z,99262.88
2023-04-27T17:27:44.861Z,99266.28
2023-04-27T17:30:12.337Z,99266.94
2023-04-27T17:32:39.290Z,99257.03
2023-04-27T17:35:06.684Z,99267.72
2023-04-27T17:37:33.498Z,99274.50
2023-04-27T17:40:00.573Z,99287.78
2023-04-27T17:42:27.397Z,99275.44
2023-04-27T17:44:55.593Z,99288.72
2023-04-27T17:47:25.388Z,99287.09
2023-04-27T17:49:52.513Z,99291.94
2023-04-27T17:52:19.674Z,99302.25
2023-04-27T17:54:46.842Z,99307.75
2023-04-27T17:57:13.850Z,99306.88
2023-04-27T17:59:41.373Z,99313.03
2023-04-27T18:02:08.966Z,99313.78
2023-04-27T18:04:36.674Z,99326.59
2023-04-27T18:07:03.909Z,99337.44
2023-04-27T18:09:32.947Z,99337.69
2023-04-27T18:12:00.771Z,99342.81
2023-04-27T18:14:27.710Z,99344.56
2023-04-27T18:16:55.157Z,99346.88
2023-04-27T18:19:22.677Z,99346.63
2023-04-27T18:21:49.685Z,99346.81
2023-04-27T18:24:16.513Z,99355.31
2023-04-27T18:26:43.641Z,99351.41
2023-04-27T18:29:10.660Z,99355.16
2023-04-27T18:31:38.180Z,99350.47
2023-04-27T18:34:05.268Z,99359.59
2023-04-27T18:36:32.404Z,99368.66
2023-04-27T18:39:00.356Z,99364.41
2023-04-27T18:41:27.538Z,99391.06
2023-04-27T18:43:54.429Z,99391.72
2023-04-27T18:46:21.478Z,99391.09
2023-04-27T18:48:48.831Z,99390.16
2023-04-27T18:51:15.738Z,99397.09
2023-04-27T18:53:42.659Z,99399.00
2023-04-27T18:56:10.445Z,99417.94
2023-04-27T18:58:37.450Z,99413.53
2023-04-27T19:01:04.534Z,99412.16
2023-04-27T19:03:32.053Z,99428.31
2023-04-27T19:05:59.405Z,99428.59
2023-04-27T19:08:26.290Z,99418.22
2023-04-27T19:10:53.398Z,99423.03
2023-04-27T19:13:20.184Z,99437.09
2023-04-27T19:15:47.153Z,99443.44
2023-04-27T19:18:13.994Z,99441.91
2023-04-27T19:20:52.904Z,99442.81
2023-04-27T19:23:20.020Z,99415.88
2023-04-27T19:25:48.428Z,99413.16
2023-04-27T19:28:19.506Z,99413.34
2023-04-27T19:30:47.601Z,99425.16
2023-04-27T19:33:15.339Z,99420.88
2023-04-27T19:35:42.940Z,99428.19
2023-04-27T19:38:10.199Z,99419.75
2023-04-27T19:40:37.730Z,99422.50
2023-04-27T19:43:07.061Z,99418.03
2023-04-27T19:45:34.373Z,99425.56
2023-04-27T19:48:01.301Z,99424.53
2023-04-27T19:50:28.426Z,99427.59
2023-04-27T19:52:55.207Z,99432.78
2023-04-27T19:55:22.148Z,99430.63
2023-04-27T19:57:49.001Z,99428.00
2023-04-27T20:00:16.227Z,99418.53
2023-04-27T20:02:43.336Z,99420.25
2023-04-27T20:05:11.572Z,99420.44
2023-04-27T20:07:38.566Z,99417.78
2023-04-27T20:10:05.890Z,99413.94
2023-04-27T20:12:51.358Z,99420.16
2023-04-27T20:15:27.028Z,99420.63
2023-04-27T20:18:14.535Z,99424.50
2023-04-27T20:20:42.071Z,99413.69
2023-04-27T20:23:18.852Z,99422.44
2023-04-27T20:25:46.171Z,99427.94
2023-04-27T20:28:12.997Z,99413.91
2023-04-27T20:30:40.151Z,99422.66
2023-04-27T20:33:07.252Z,99428.16
2023-04-27T20:36:09.871Z,99426.72
2023-04-27T20:38:44.116Z,99430.59
2023-04-27T20:41:12.550Z,99420.31
2023-04-27T20:43:40.197Z,99429.88
2023-04-27T20:46:08.322Z,99442.28
2023-04-27T20:48:35.546Z,99449.09
2023-04-27T20:51:02.659Z,99446.97
2023-04-27T20:53:29.912Z,99447.69
2023-04-27T20:56:14.684Z,99454.00
2023-04-27T20:58:41.456Z,99444.72
2023-04-27T21:01:20.577Z,99443.81
2023-04-27T21:03:50.846Z,99447.88
2023-04-27T21:06:18.008Z,99449.91
2023-04-27T21:08:44.996Z,99454.38
2023-04-27T21:11:12.081Z,99448.00
2023-04-27T21:13:39.047Z,99458.88
2023-04-27T21:16:06.482Z,99464.59
2023-04-27T21:18:33.269Z,99466.13
2023-04-27T21:21:00.170Z,99471.72
2023-04-27T21:23:27.275Z,99465.94
2023-04-27T21:25:54.084Z,99481.50
2023-04-27T21:28:21.786Z,99475.19
2023-04-27T21:30:48.675Z,99473.34
2023-04-27T21:33:15.708Z,99485.38
2023-04-27T21:35:42.596Z,99472.53
2023-04-27T21:38:09.599Z,99466.53
2023-04-27T21:40:36.381Z,99482.09
2023-04-27T21:43:03.661Z,99486.38
2023-04-27T21:45:30.513Z,99497.38
2023-04-27T21:47:57.618Z,99497.97
2023-04-27T21:50:24.367Z,99501.84
2023-04-27T21:52:51.245Z,99500.22
2023-04-27T21:55:18.117Z,99514.88
2023-04-27T21:57:45.201Z,99513.66
2023-04-27T22:00:15.410Z,99509.41
2023-04-27T22:02:45.527Z,99525.06
2023-04-27T22:05:12.501Z,99521.19
2023-04-27T22:07:39.412Z,99520.06
2023-04-27T22:10:06.627Z,99521.69
2023-04-27T22:12:33.771Z,99527.09
2023-04-27T22:15:01.220Z,99526.97
2023-04-27T22:17:28.384Z,99533.09
2023-04-27T22:19:55.216Z,99537.28
2023-04-27T22:22:22.294Z,99524.75
2023-04-27T22:24:49.395Z,99545.00
2023-04-27T22:27:16.737Z,99536.03
2023-04-27T22:29:43.556Z,99540.63
2023-04-27T22:32:10.523Z,99530.34
2023-04-27T22:34:37.451Z,99547.94
2023-04-27T22:37:04.537Z,99547.03
2023-04-27T22:39:32.410Z,99555.19
2023-04-27T22:41:59.526Z,99548.06
2023-04-27T22:44:26.411Z,99559.66
2023-04-27T22:46:53.313Z,99558.13
2023-04-27T22:49:20.131Z,99569.16
2023-04-27T22:51:47.372Z,99568.94
2023-04-27T22:54:15.031Z,99576.16
2023-04-27T22:56:42.036Z,99569.53
2023-04-27T22:59:09.117Z,99560.38
2023-04-27T23:01:36.169Z,99562.41
2023-04-27T23:04:03.207Z,99570.47
2023-04-27T23:06:30.408Z,99562.19
2023-04-27T23:08:57.694Z,99567.19
2023-04-27T23:11:26.875Z,99571.03
2023-04-27T23:13:54.689Z,99579.88
2023-04-27T23:16:21.894Z,99579.81
2023-04-27T23:18:48.782Z,99582.13
2023-04-27T23:21:16.008Z,99594.44
2023-04-27T23:23:43.125Z,99588.22
2023-04-27T23:26:14.610Z,99593.94
2023-04-27T23:28:41.911Z,99584.28
2023-04-27T23:31:09.318Z,99588.34
2023-04-27T23:33:36.524Z,99586.19
2023-04-27T23:36:04.607Z,99595.03
2023-04-27T23:38:31.559Z,99591.28
2023-04-27T23:40:58.730Z,99591.78
2023-04-27T23:43:26.061Z,99601.06
2023-04-27T23:45:53.130Z,99600.53
2023-04-27T23:48:20.389Z,99595.03
2023-04-27T23:50:47.206Z,99599.50
2023-04-27T23:53:14.308Z,99597.88
2023-04-27T23:55:41.158Z,99585.56
2023-04-27T23:58:08.294Z,99571.06
